createdAt,value
2017-06-10T00:00:06.971Z,1010.58
2017-06-10T00:01:06.953Z,1010.59
2017-06-10T00:02:06.938Z,1010.62
2017-06-10T00:03:06.921Z,1010.63
2017-06-10T00:04:06.903Z,1010.65
2017-06-10T00:05:06.888Z,1010.68
2017-06-10T00:06:06.870Z,1010.65
2017-06-10T00:07:06.859Z,1010.65
2017-06-10T00:08:06.841Z,1010.66
2017-06-10T00:09:06.821Z,1010.67
2017-06-10T00:10:06.807Z,1010.67
2017-06-10T00:11:06.824Z,1010.7
2017-06-10T00:12:06.776Z,1010.7
2017-06-10T00:13:06.759Z,1010.68
2017-06-10T00:14:06.745Z,1010.65
2017-06-10T00:15:06.721Z,1010.63
2017-06-10T00:16:06.711Z,1010.63
2017-06-10T00:17:06.698Z,1010.6
2017-06-10T00:18:06.679Z,1010.58
2017-06-10T00:19:06.656Z,1010.62
2017-06-10T00:20:06.643Z,1010.63
2017-06-10T00:21:06.624Z,1010.67
2017-06-10T00:22:06.608Z,1010.68
2017-06-10T00:23:06.594Z,1010.67
2017-06-10T00:24:06.575Z,1010.66
2017-06-10T00:25:06.561Z,1010.69
2017-06-10T00:26:06.543Z,1010.71
2017-06-10T00:27:06.538Z,1010.75
2017-06-10T00:28:06.508Z,1010.76
2017-06-10T00:29:06.494Z,1010.72
2017-06-10T00:30:06.474Z,1010.72
2017-06-10T00:31:06.462Z,1010.76
2017-06-10T00:32:06.446Z,1010.76
2017-06-10T00:33:06.429Z,1010.76
2017-06-10T00:34:06.411Z,1010.74
2017-06-10T00:35:06.398Z,1010.78
2017-06-10T00:36:06.381Z,1010.75
2017-06-10T00:37:06.363Z,1010.75
2017-06-10T00:38:06.352Z,1010.75
2017-06-10T00:39:06.331Z,1010.75
2017-06-10T00:40:06.311Z,1010.76
2017-06-10T00:41:06.301Z,1010.79
2017-06-10T00:42:06.277Z,1010.77
2017-06-10T00:43:06.264Z,1010.76
2017-06-10T00:44:06.250Z,1010.76
2017-06-10T00:45:06.234Z,1010.79
2017-06-10T00:46:06.224Z,1010.83
2017-06-10T00:47:06.204Z,1010.8
2017-06-10T00:48:06.182Z,1010.87
2017-06-10T00:49:06.162Z,1010.86
2017-06-10T00:50:06.151Z,1010.9
2017-06-10T00:51:06.130Z,1010.89
2017-06-10T00:52:06.114Z,1010.88
2017-06-10T00:53:06.098Z,1010.88
2017-06-10T00:54:06.081Z,1010.9
2017-06-10T00:55:06.062Z,1010.91
2017-06-10T00:56:06.045Z,1010.94
2017-06-10T00:57:06.034Z,1010.95
2017-06-10T00:58:06.023Z,1010.92
2017-06-10T00:59:06.005Z,1010.93
2017-06-10T01:00:05.982Z,1010.95
2017-06-10T01:01:05.972Z,1010.96
2017-06-10T01:02:05.950Z,1011
2017-06-10T01:03:05.935Z,1010.96
2017-06-10T01:04:05.920Z,1010.96
2017-06-10T01:05:05.898Z,1010.97
2017-06-10T01:06:05.881Z,1010.96
2017-06-10T01:07:05.875Z,1010.93
2017-06-10T01:08:05.846Z,1010.98
2017-06-10T01:09:05.831Z,1011.02
2017-06-10T01:10:05.815Z,1011.02
2017-06-10T01:11:05.802Z,1011.01
2017-06-10T01:12:05.780Z,1011.04
2017-06-10T01:13:05.764Z,1011.08
2017-06-10T01:14:05.751Z,1011.05
2017-06-10T01:15:05.731Z,1011.06
2017-06-10T01:16:05.714Z,1011.05
2017-06-10T01:17:05.734Z,1011.07
2017-06-10T01:18:05.681Z,1011.07
2017-06-10T01:19:05.667Z,1011.09
2017-06-10T01:20:05.650Z,1011.12
2017-06-10T01:21:05.632Z,1011.13
2017-06-10T01:22:05.611Z,1011.13
2017-06-10T01:23:05.595Z,1011.14
2017-06-10T01:24:05.581Z,1011.12
2017-06-10T01:25:05.561Z,1011.17
2017-06-10T01:26:05.554Z,1011.11
2017-06-10T01:27:05.527Z,1011.18
2017-06-10T01:28:05.509Z,1011.17
2017-06-10T01:29:05.502Z,1011.17
2017-06-10T01:30:05.480Z,1011.15
2017-06-10T01:31:05.464Z,1011.16
2017-06-10T01:32:05.445Z,1011.13
2017-06-10T01:33:05.432Z,1011.16
2017-06-10T01:34:05.411Z,1011.16
2017-06-10T01:35:05.404Z,1011.16
2017-06-10T01:36:05.376Z,1011.17
2017-06-10T01:37:05.360Z,1011.16
2017-06-10T01:38:05.343Z,1011.14
2017-06-10T01:39:05.333Z,1011.18
2017-06-10T01:40:05.310Z,1011.16
2017-06-10T01:41:05.301Z,1011.16
2017-06-10T01:42:05.280Z,1011.18
2017-06-10T01:43:05.261Z,1011.17
2017-06-10T01:44:05.239Z,1011.19
2017-06-10T01:45:05.224Z,1011.19
2017-06-10T01:46:05.210Z,1011.21
2017-06-10T01:47:05.192Z,1011.21
2017-06-10T01:48:05.170Z,1011.22
2017-06-10T01:49:05.155Z,1011.21
2017-06-10T01:50:05.136Z,1011.2
2017-06-10T01:51:05.130Z,1011.24
2017-06-10T01:52:05.107Z,1011.25
2017-06-10T01:53:05.092Z,1011.21
2017-06-10T01:54:05.072Z,1011.22
2017-06-10T01:55:05.057Z,1011.23
2017-06-10T01:56:05.042Z,1011.22
2017-06-10T01:57:05.021Z,1011.23
2017-06-10T01:58:05.003Z,1011.31
2017-06-10T01:59:04.993Z,1011.3
2017-06-10T02:00:04.966Z,1011.29
2017-06-10T02:01:04.951Z,1011.29
2017-06-10T02:02:04.935Z,1011.26
2017-06-10T02:03:04.922Z,1011.3
2017-06-10T02:04:04.904Z,1011.29
2017-06-10T02:05:04.881Z,1011.34
2017-06-10T02:06:04.868Z,1011.35
2017-06-10T02:07:04.849Z,1011.34
2017-06-10T02:08:04.834Z,1011.36
2017-06-10T02:09:04.814Z,1011.41
2017-06-10T02:10:04.801Z,1011.38
2017-06-10T02:11:04.779Z,1011.41
2017-06-10T02:12:04.764Z,1011.37
2017-06-10T02:13:04.749Z,1011.4
2017-06-10T02:14:04.731Z,1011.39
2017-06-10T02:15:04.706Z,1011.39
2017-06-10T02:16:04.691Z,1011.4
2017-06-10T02:17:04.678Z,1011.4
2017-06-10T02:18:04.654Z,1011.43
2017-06-10T02:19:04.641Z,1011.44
2017-06-10T02:20:04.621Z,1011.45
2017-06-10T02:21:04.611Z,1011.44
2017-06-10T02:22:04.590Z,1011.42
2017-06-10T02:23:04.571Z,1011.36
2017-06-10T02:24:04.555Z,1011.4
2017-06-10T02:25:04.538Z,1011.45
2017-06-10T02:26:04.522Z,1011.42
2017-06-10T02:27:04.497Z,1011.42
2017-06-10T02:28:04.481Z,1011.43
2017-06-10T02:29:04.464Z,1011.44
2017-06-10T02:30:04.452Z,1011.44
2017-06-10T02:31:04.437Z,1011.43
2017-06-10T02:32:04.412Z,1011.45
2017-06-10T02:33:04.403Z,1011.42
2017-06-10T02:34:04.378Z,1011.43
2017-06-10T02:35:04.360Z,1011.44
2017-06-10T02:36:04.346Z,1011.42
2017-06-10T02:37:04.331Z,1011.4
2017-06-10T02:38:04.308Z,1011.43
2017-06-10T02:39:04.302Z,1011.44
2017-06-10T02:40:04.270Z,1011.47
2017-06-10T02:41:04.255Z,1011.46
2017-06-10T02:42:04.242Z,1011.42
2017-06-10T02:43:04.222Z,1011.44
2017-06-10T02:44:04.203Z,1011.43
2017-06-10T02:45:04.202Z,1011.45
2017-06-10T02:46:04.184Z,1011.42
2017-06-10T02:47:04.158Z,1011.49
2017-06-10T02:48:04.140Z,1011.5
2017-06-10T02:49:04.118Z,1011.53
2017-06-10T02:50:04.102Z,1011.53
2017-06-10T02:51:04.081Z,1011.52
2017-06-10T02:52:04.130Z,1011.55
2017-06-10T02:53:04.041Z,1011.55
2017-06-10T02:54:04.032Z,1011.61
2017-06-10T02:55:04.010Z,1011.63
2017-06-10T02:56:03.993Z,1011.63
2017-06-10T02:57:03.975Z,1011.64
2017-06-10T02:58:03.962Z,1011.63
2017-06-10T02:59:03.933Z,1011.64
2017-06-10T03:00:03.928Z,1011.64
2017-06-10T03:01:03.901Z,1011.62
2017-06-10T03:02:03.893Z,1011.62
2017-06-10T03:03:03.865Z,1011.6
2017-06-10T03:04:03.851Z,1011.58
2017-06-10T03:05:03.832Z,1011.61
2017-06-10T03:06:03.816Z,1011.65
2017-06-10T03:07:03.802Z,1011.66
2017-06-10T03:08:03.781Z,1011.64
2017-06-10T03:09:03.761Z,1011.65
2017-06-10T03:10:03.830Z,1011.64
2017-06-10T03:11:03.723Z,1011.63
2017-06-10T03:12:03.708Z,1011.64
2017-06-10T03:13:03.691Z,1011.66
2017-06-10T03:14:03.670Z,1011.64
2017-06-10T03:15:03.661Z,1011.69
2017-06-10T03:16:03.641Z,1011.69
2017-06-10T03:17:03.615Z,1011.73
2017-06-10T03:18:03.603Z,1011.72
2017-06-10T03:19:03.582Z,1011.75
2017-06-10T03:20:03.564Z,1011.77
2017-06-10T03:21:03.552Z,1011.75
2017-06-10T03:22:03.554Z,1011.81
2017-06-10T03:23:03.512Z,1011.79
2017-06-10T03:24:03.503Z,1011.8
2017-06-10T03:25:03.471Z,1011.81
2017-06-10T03:26:03.475Z,1011.78
2017-06-10T03:27:03.443Z,1011.81
2017-06-10T03:28:03.420Z,1011.8
2017-06-10T03:29:03.404Z,1011.82
2017-06-10T03:30:03.386Z,1011.81
2017-06-10T03:31:03.372Z,1011.81
2017-06-10T03:32:03.350Z,1011.86
2017-06-10T03:33:03.331Z,1011.87
2017-06-10T03:34:03.337Z,1011.89
2017-06-10T03:35:03.298Z,1011.86
2017-06-10T03:36:03.279Z,1011.87
2017-06-10T03:37:03.261Z,1011.88
2017-06-10T03:38:03.241Z,1011.91
2017-06-10T03:39:03.227Z,1011.94
2017-06-10T03:40:03.207Z,1011.92
2017-06-10T03:41:03.193Z,1011.92
2017-06-10T03:42:03.171Z,1011.9
2017-06-10T03:43:03.152Z,1011.9
2017-06-10T03:44:03.136Z,1011.92
2017-06-10T03:45:03.113Z,1011.95
2017-06-10T03:46:03.102Z,1011.94
2017-06-10T03:47:03.081Z,1011.97
2017-06-10T03:48:03.074Z,1011.98
2017-06-10T03:49:03.047Z,1011.98
2017-06-10T03:50:03.051Z,1012.01
2017-06-10T03:51:03.014Z,1011.99
2017-06-10T03:52:02.993Z,1012.01
2017-06-10T03:53:02.979Z,1011.98
2017-06-10T03:54:02.960Z,1011.99
2017-06-10T03:55:02.941Z,1012.03
2017-06-10T03:56:02.923Z,1012.03
2017-06-10T03:57:02.913Z,1012.02
2017-06-10T03:58:02.882Z,1011.96
2017-06-10T03:59:02.864Z,1012.02
2017-06-10T04:00:02.850Z,1012.04
2017-06-10T04:01:02.828Z,1012.09
2017-06-10T04:02:02.822Z,1012.09
2017-06-10T04:03:02.800Z,1012.05
2017-06-10T04:04:02.776Z,1012.04
2017-06-10T04:05:02.769Z,1012.05
2017-06-10T04:06:02.740Z,1012.01
2017-06-10T04:07:02.726Z,1012.06
2017-06-10T04:08:02.709Z,1012.07
2017-06-10T04:09:02.693Z,1012.04
2017-06-10T04:10:02.671Z,1012.07
2017-06-10T04:11:02.651Z,1012.07
2017-06-10T04:12:02.635Z,1012.07
2017-06-10T04:13:02.621Z,1012.11
2017-06-10T04:14:02.600Z,1012.09
2017-06-10T04:15:02.582Z,1012.09
2017-06-10T04:16:02.560Z,1012.11
2017-06-10T04:17:02.544Z,1012.15
2017-06-10T04:18:02.531Z,1012.11
2017-06-10T04:19:02.511Z,1012.11
2017-06-10T04:20:02.495Z,1012.11
2017-06-10T04:21:02.481Z,1012.16
2017-06-10T04:22:02.463Z,1012.17
2017-06-10T04:23:02.441Z,1012.18
2017-06-10T04:24:02.471Z,1012.18
2017-06-10T04:25:02.405Z,1012.2
2017-06-10T04:26:02.386Z,1012.25
2017-06-10T04:27:02.372Z,1012.25
2017-06-10T04:28:02.363Z,1012.33
2017-06-10T04:29:02.335Z,1012.29
2017-06-10T04:30:02.321Z,1012.29
2017-06-10T04:31:02.302Z,1012.29
2017-06-10T04:32:02.290Z,1012.31
2017-06-10T04:33:02.263Z,1012.29
2017-06-10T04:34:02.293Z,1012.31
2017-06-10T04:35:02.231Z,1012.34
2017-06-10T04:36:02.263Z,1012.34
2017-06-10T04:37:02.193Z,1012.28
2017-06-10T04:38:02.175Z,1012.27
2017-06-10T04:39:02.159Z,1012.29
2017-06-10T04:40:02.288Z,1012.28
2017-06-10T04:41:02.121Z,1012.29
2017-06-10T04:42:02.106Z,1012.25
2017-06-10T04:43:02.090Z,1012.24
2017-06-10T04:44:02.071Z,1012.23
2017-06-10T04:45:02.057Z,1012.22
2017-06-10T04:46:02.035Z,1012.24
2017-06-10T04:47:02.019Z,1012.29
2017-06-10T04:48:01.998Z,1012.26
2017-06-10T04:49:01.982Z,1012.28
2017-06-10T04:50:01.974Z,1012.25
2017-06-10T04:51:01.948Z,1012.22
2017-06-10T04:52:01.929Z,1012.25
2017-06-10T04:53:01.916Z,1012.24
2017-06-10T04:54:01.894Z,1012.22
2017-06-10T04:55:01.878Z,1012.22
2017-06-10T04:56:01.862Z,1012.22
2017-06-10T04:57:01.837Z,1012.22
2017-06-10T04:58:01.823Z,1012.18
2017-06-10T04:59:01.805Z,1012.19
2017-06-10T05:00:01.812Z,1012.22
2017-06-10T05:01:01.774Z,1012.22
2017-06-10T05:02:01.750Z,1012.27
2017-06-10T05:03:01.738Z,1012.25
2017-06-10T05:04:01.722Z,1012.27
2017-06-10T05:05:01.697Z,1012.27
2017-06-10T05:06:01.682Z,1012.29
2017-06-10T05:07:01.665Z,1012.32
2017-06-10T05:08:01.646Z,1012.35
2017-06-10T05:09:01.628Z,1012.36
2017-06-10T05:10:01.620Z,1012.36
2017-06-10T05:11:01.594Z,1012.39
2017-06-10T05:12:01.581Z,1012.4
2017-06-10T05:13:01.563Z,1012.42
2017-06-10T05:14:01.546Z,1012.43
2017-06-10T05:15:01.527Z,1012.43
2017-06-10T05:16:01.510Z,1012.45
2017-06-10T05:17:01.494Z,1012.43
2017-06-10T05:18:01.477Z,1012.45
2017-06-10T05:19:01.461Z,1012.48
2017-06-10T05:20:01.441Z,1012.47
2017-06-10T05:21:01.430Z,1012.43
2017-06-10T05:22:01.406Z,1012.44
2017-06-10T05:23:01.391Z,1012.49
2017-06-10T05:24:01.373Z,1012.49
2017-06-10T05:25:01.354Z,1012.5
2017-06-10T05:26:01.338Z,1012.45
2017-06-10T05:27:01.320Z,1012.48
2017-06-10T05:28:01.301Z,1012.45
2017-06-10T05:29:01.292Z,1012.49
2017-06-10T05:30:01.270Z,1012.47
2017-06-10T05:31:01.252Z,1012.51
2017-06-10T05:32:01.240Z,1012.58
2017-06-10T05:33:01.217Z,1012.55
2017-06-10T05:34:01.202Z,1012.56
2017-06-10T05:35:01.181Z,1012.52
2017-06-10T05:36:01.182Z,1012.56
2017-06-10T05:37:01.151Z,1012.53
2017-06-10T05:38:01.142Z,1012.55
2017-06-10T05:39:01.123Z,1012.57
2017-06-10T05:40:01.096Z,1012.6
2017-06-10T05:41:01.090Z,1012.59
2017-06-10T05:42:01.060Z,1012.59
2017-06-10T05:43:01.050Z,1012.64
2017-06-10T05:44:01.027Z,1012.62
2017-06-10T05:45:01.012Z,1012.63
2017-06-10T05:46:00.994Z,1012.66
2017-06-10T05:47:00.979Z,1012.62
2017-06-10T05:48:00.962Z,1012.63
2017-06-10T05:49:00.970Z,1012.64
2017-06-10T05:50:00.929Z,1012.63
2017-06-10T05:51:00.910Z,1012.59
2017-06-10T05:52:00.890Z,1012.6
2017-06-10T05:53:00.883Z,1012.62
2017-06-10T05:54:00.862Z,1012.66
2017-06-10T05:55:00.836Z,1012.62
2017-06-10T05:56:00.828Z,1012.66
2017-06-10T05:57:00.805Z,1012.69
2017-06-10T05:58:00.794Z,1012.69
2017-06-10T05:59:00.769Z,1012.69
2017-06-10T06:00:00.760Z,1012.71
2017-06-10T06:01:00.745Z,1012.73
2017-06-10T06:02:00.719Z,1012.73
2017-06-10T06:03:00.703Z,1012.76
2017-06-10T06:04:00.689Z,1012.72
2017-06-10T06:05:00.673Z,1012.73
2017-06-10T06:06:00.659Z,1012.72
2017-06-10T06:07:00.640Z,1012.76
2017-06-10T06:08:00.621Z,1012.78
2017-06-10T06:09:00.614Z,1012.81
2017-06-10T06:10:00.588Z,1012.87
2017-06-10T06:11:00.573Z,1012.89
2017-06-10T06:12:00.553Z,1012.88
2017-06-10T06:13:00.543Z,1012.88
2017-06-10T06:14:00.519Z,1012.92
2017-06-10T06:15:00.510Z,1012.88
2017-06-10T06:16:00.491Z,1012.93
2017-06-10T06:17:00.469Z,1012.9
2017-06-10T06:18:00.461Z,1012.97
2017-06-10T06:19:00.441Z,1013
2017-06-10T06:20:00.422Z,1013.03
2017-06-10T06:21:00.407Z,1013.06
2017-06-10T06:22:00.390Z,1013.05
2017-06-10T06:23:00.377Z,1013.12
2017-06-10T06:24:00.363Z,1013.1
2017-06-10T06:25:00.390Z,1013.14
2017-06-10T06:26:00.322Z,1013.14
2017-06-10T06:27:00.310Z,1013.17
2017-06-10T06:28:00.291Z,1013.18
2017-06-10T06:29:00.276Z,1013.18
2017-06-10T06:30:00.263Z,1013.17
2017-06-10T06:31:00.243Z,1013.2
2017-06-10T06:32:00.225Z,1013.1
2017-06-10T06:33:00.209Z,1013.17
2017-06-10T06:34:00.212Z,1013.18
2017-06-10T06:35:00.180Z,1013.23
2017-06-10T06:36:00.160Z,1013.22
2017-06-10T06:37:00.148Z,1013.22
2017-06-10T06:38:00.131Z,1013.26
2017-06-10T06:39:00.118Z,1013.25
2017-06-10T06:40:00.104Z,1013.31
2017-06-10T06:41:00.088Z,1013.28
2017-06-10T06:42:00.067Z,1013.31
2017-06-10T06:43:00.052Z,1013.32
2017-06-10T06:44:00.042Z,1013.3
2017-06-10T06:45:00.031Z,1013.29
2017-06-10T06:46:00.001Z,1013.3
2017-06-10T06:46:59.992Z,1013.33
2017-06-10T06:47:59.972Z,1013.32
2017-06-10T06:48:59.966Z,1013.33
2017-06-10T06:49:59.943Z,1013.4
2017-06-10T06:50:59.929Z,1013.38
2017-06-10T06:51:59.905Z,1013.45
2017-06-10T06:53:00.012Z,1013.4
2017-06-10T06:53:59.876Z,1013.44
2017-06-10T06:54:59.866Z,1013.44
2017-06-10T06:55:59.849Z,1013.45
2017-06-10T06:56:59.881Z,1013.41
2017-06-10T06:57:59.810Z,1013.49
2017-06-10T06:58:59.800Z,1013.49
2017-06-10T06:59:59.778Z,1013.58
2017-06-10T07:00:59.764Z,1013.62
2017-06-10T07:01:59.749Z,1013.59
2017-06-10T07:02:59.730Z,1013.62
2017-06-10T07:03:59.721Z,1013.59
2017-06-10T07:04:59.708Z,1013.6
2017-06-10T07:05:59.690Z,1013.59
2017-06-10T07:06:59.709Z,1013.62
2017-06-10T07:07:59.652Z,1013.63
2017-06-10T07:08:59.638Z,1013.67
2017-06-10T07:09:59.622Z,1013.66
2017-06-10T07:10:59.606Z,1013.68
2017-06-10T07:11:59.591Z,1013.7
2017-06-10T07:12:59.575Z,1013.71
2017-06-10T07:13:59.561Z,1013.73
2017-06-10T07:14:59.543Z,1013.73
2017-06-10T07:15:59.530Z,1013.79
2017-06-10T07:16:59.514Z,1013.79
2017-06-10T07:17:59.500Z,1013.81
2017-06-10T07:18:59.481Z,1013.81
2017-06-10T07:19:59.476Z,1013.81
2017-06-10T07:20:59.450Z,1013.84
2017-06-10T07:21:59.440Z,1013.83
2017-06-10T07:22:59.424Z,1013.84
2017-06-10T07:23:59.403Z,1013.82
2017-06-10T07:24:59.390Z,1013.81
2017-06-10T07:25:59.373Z,1013.82
2017-06-10T07:26:59.361Z,1013.82
2017-06-10T07:27:59.349Z,1013.83
2017-06-10T07:28:59.331Z,1013.84
2017-06-10T07:29:59.312Z,1013.82
2017-06-10T07:30:59.311Z,1013.81
2017-06-10T07:31:59.281Z,1013.82
2017-06-10T07:32:59.269Z,1013.84
2017-06-10T07:33:59.250Z,1013.89
2017-06-10T07:34:59.240Z,1013.89
2017-06-10T07:35:59.220Z,1013.84
2017-06-10T07:36:59.259Z,1013.85
2017-06-10T07:37:59.195Z,1013.83
2017-06-10T07:38:59.178Z,1013.87
2017-06-10T07:39:59.163Z,1013.9
2017-06-10T07:40:59.144Z,1013.92
2017-06-10T07:41:59.131Z,1013.91
2017-06-10T07:42:59.121Z,1013.91
2017-06-10T07:43:59.102Z,1013.87
2017-06-10T07:44:59.092Z,1013.86
2017-06-10T07:45:59.073Z,1013.88
2017-06-10T07:46:59.056Z,1013.76
2017-06-10T07:47:59.043Z,1013.8
2017-06-10T07:48:59.030Z,1013.8
2017-06-10T07:49:59.013Z,1013.84
2017-06-10T07:50:59.001Z,1013.82
2017-06-10T07:51:58.984Z,1013.8
2017-06-10T07:52:58.979Z,1013.79
2017-06-10T07:53:58.954Z,1013.78
2017-06-10T07:54:58.943Z,1013.81
2017-06-10T07:55:58.923Z,1013.83
2017-06-10T07:56:58.913Z,1013.79
2017-06-10T07:57:58.901Z,1013.75
2017-06-10T07:58:58.879Z,1013.74
2017-06-10T07:59:58.873Z,1013.77
2017-06-10T08:00:58.853Z,1013.74
2017-06-10T08:01:58.844Z,1013.76
2017-06-10T08:02:58.821Z,1013.75
2017-06-10T08:03:58.812Z,1013.8
2017-06-10T08:04:58.798Z,1013.78
2017-06-10T08:05:58.781Z,1013.79
2017-06-10T08:06:58.768Z,1013.78
2017-06-10T08:07:58.758Z,1013.83
2017-06-10T08:08:58.752Z,1013.84
2017-06-10T08:09:58.732Z,1013.87
2017-06-10T08:10:58.714Z,1013.87
2017-06-10T08:11:58.751Z,1013.88
2017-06-10T08:12:58.692Z,1013.91
2017-06-10T08:13:58.674Z,1013.99
2017-06-10T08:14:58.662Z,1014.05
2017-06-10T08:15:58.644Z,1014.09
2017-06-10T08:16:58.634Z,1014.04
2017-06-10T08:17:58.620Z,1014.08
2017-06-10T08:18:58.604Z,1014.04
2017-06-10T08:19:58.594Z,1014.04
2017-06-10T08:20:58.579Z,1014.06
2017-06-10T08:21:58.575Z,1014.04
2017-06-10T08:22:58.552Z,1014.06
2017-06-10T08:23:58.541Z,1014.08
2017-06-10T08:24:58.529Z,1014.04
2017-06-10T08:25:58.517Z,1014.07
2017-06-10T08:26:58.503Z,1014.05
2017-06-10T08:27:58.485Z,1014.02
2017-06-10T08:28:58.474Z,1014.03
2017-06-10T08:29:58.462Z,1014.02
2017-06-10T08:30:58.455Z,1014.02
2017-06-10T08:31:58.434Z,1014.01
2017-06-10T08:32:58.422Z,1013.99
2017-06-10T08:33:58.413Z,1013.89
2017-06-10T08:34:58.403Z,1013.89
2017-06-10T08:35:58.393Z,1013.88
2017-06-10T08:36:58.382Z,1013.88
2017-06-10T08:37:58.362Z,1013.92
2017-06-10T08:38:58.344Z,1013.93
2017-06-10T08:39:58.445Z,1013.97
2017-06-10T08:40:58.321Z,1013.95
2017-06-10T08:41:58.312Z,1013.96
2017-06-10T08:42:58.295Z,1013.92
2017-06-10T08:43:58.286Z,1013.92
2017-06-10T08:44:58.271Z,1013.91
2017-06-10T08:45:58.262Z,1013.95
2017-06-10T08:46:58.245Z,1014.01
2017-06-10T08:47:58.299Z,1013.99
2017-06-10T08:48:58.219Z,1014.04
2017-06-10T08:49:58.258Z,1014.05
2017-06-10T08:50:58.192Z,1014.03
2017-06-10T08:51:58.193Z,1014.04
2017-06-10T08:52:58.171Z,1013.99
2017-06-10T08:53:58.160Z,1014
2017-06-10T08:54:58.140Z,1014.02
2017-06-10T08:55:58.133Z,1013.98
2017-06-10T08:56:58.119Z,1013.97
2017-06-10T08:57:58.105Z,1014.01
2017-06-10T08:58:58.095Z,1013.98
2017-06-10T08:59:58.083Z,1013.99
2017-06-10T09:00:58.082Z,1014.01
2017-06-10T09:01:58.057Z,1013.95
2017-06-10T09:02:58.043Z,1013.95
2017-06-10T09:03:58.033Z,1013.97
2017-06-10T09:04:58.018Z,1013.96
2017-06-10T09:05:58.011Z,1013.97
2017-06-10T09:06:57.994Z,1014
2017-06-10T09:07:57.983Z,1014.02
2017-06-10T09:08:57.976Z,1013.91
2017-06-10T09:09:57.955Z,1013.96
2017-06-10T09:10:57.945Z,1013.95
2017-06-10T09:11:57.933Z,1013.98
2017-06-10T09:12:57.922Z,1013.92
2017-06-10T09:13:57.907Z,1013.98
2017-06-10T09:14:57.906Z,1013.98
2017-06-10T09:15:57.886Z,1013.98
2017-06-10T09:16:57.874Z,1013.93
2017-06-10T09:17:57.860Z,1013.99
2017-06-10T09:18:57.847Z,1014.03
2017-06-10T09:19:57.832Z,1014
2017-06-10T09:20:57.824Z,1013.97
2017-06-10T09:21:57.814Z,1013.98
2017-06-10T09:22:57.796Z,1013.93
2017-06-10T09:23:57.784Z,1013.9
2017-06-10T09:24:57.773Z,1013.93
2017-06-10T09:25:57.764Z,1013.92
2017-06-10T09:26:57.756Z,1013.92
2017-06-10T09:27:57.743Z,1014.03
2017-06-10T09:28:57.745Z,1014.09
2017-06-10T09:29:57.716Z,1014.14
2017-06-10T09:30:57.703Z,1014.14
2017-06-10T09:31:57.694Z,1014.05
2017-06-10T09:32:57.690Z,1014.13
2017-06-10T09:33:57.672Z,1014.15
2017-06-10T09:34:57.657Z,1014.13
2017-06-10T09:35:57.652Z,1014.19
2017-06-10T09:36:57.642Z,1014.17
2017-06-10T09:37:57.626Z,1014.1
2017-06-10T09:38:57.614Z,1014.15
2017-06-10T09:39:57.610Z,1014.23
2017-06-10T09:40:57.595Z,1014.21
2017-06-10T09:41:57.585Z,1014.12
2017-06-10T09:42:57.583Z,1014.12
2017-06-10T09:43:57.579Z,1014.11
2017-06-10T09:44:57.557Z,1014.06
2017-06-10T09:45:57.550Z,1014.08
2017-06-10T09:46:57.544Z,1014.08
2017-06-10T09:47:57.540Z,1014.06
2017-06-10T09:48:57.525Z,1014.09
2017-06-10T09:49:57.517Z,1014.05
2017-06-10T09:50:57.508Z,1014.03
2017-06-10T09:51:57.498Z,1014.1
2017-06-10T09:52:57.493Z,1014.05
2017-06-10T09:53:57.484Z,1014.08
2017-06-10T09:54:57.472Z,1014.07
2017-06-10T09:55:57.465Z,1014.04
2017-06-10T09:56:57.456Z,1014.06
2017-06-10T09:57:57.448Z,1014.1
2017-06-10T09:58:57.442Z,1014.17
2017-06-10T09:59:57.431Z,1014.12
2017-06-10T10:00:57.424Z,1014.19
2017-06-10T10:01:57.410Z,1014.17
2017-06-10T10:02:57.400Z,1014.17
2017-06-10T10:03:57.394Z,1014.08
2017-06-10T10:04:57.383Z,1014.09
2017-06-10T10:05:57.374Z,1014.08
2017-06-10T10:06:57.368Z,1014.08
2017-06-10T10:07:57.354Z,1014.12
2017-06-10T10:08:57.343Z,1014.07
2017-06-10T10:09:57.335Z,1014.11
2017-06-10T10:10:57.323Z,1014.12
2017-06-10T10:11:57.324Z,1014.09
2017-06-10T10:12:57.311Z,1014.1
2017-06-10T10:13:57.329Z,1014.11
2017-06-10T10:14:57.287Z,1014.1
2017-06-10T10:15:57.293Z,1014.1
2017-06-10T10:16:57.270Z,1014.03
2017-06-10T10:17:57.261Z,1014.1
2017-06-10T10:18:57.251Z,1014.17
2017-06-10T10:19:57.242Z,1014.15
2017-06-10T10:20:57.231Z,1014.19
2017-06-10T10:21:57.221Z,1014.11
2017-06-10T10:22:57.216Z,1014.18
2017-06-10T10:23:57.207Z,1014.18
2017-06-10T10:24:57.197Z,1014.23
2017-06-10T10:25:57.191Z,1014.21
2017-06-10T10:26:57.178Z,1014.16
2017-06-10T10:27:57.171Z,1014.18
2017-06-10T10:28:57.160Z,1014.13
2017-06-10T10:29:57.152Z,1014.19
2017-06-10T10:30:57.146Z,1014.14
2017-06-10T10:31:57.135Z,1014.2
2017-06-10T10:32:57.125Z,1014.14
2017-06-10T10:33:57.124Z,1014.2
2017-06-10T10:34:57.111Z,1014.1
2017-06-10T10:35:57.098Z,1014.15
2017-06-10T10:36:57.094Z,1014.15
2017-06-10T10:37:57.080Z,1014.1
2017-06-10T10:38:57.075Z,1014.1
2017-06-10T10:39:57.069Z,1014.06
2017-06-10T10:40:57.070Z,1014.12
2017-06-10T10:41:57.049Z,1014.11
2017-06-10T10:42:57.043Z,1014.17
2017-06-10T10:43:57.029Z,1014.08
2017-06-10T10:44:57.021Z,1014.08
2017-06-10T10:45:57.011Z,1014.11
2017-06-10T10:46:57.007Z,1014.08
2017-06-10T10:47:57.000Z,1014.06
2017-06-10T10:48:56.990Z,1014.01
2017-06-10T10:49:56.981Z,1013.95
2017-06-10T10:50:56.969Z,1014.03
2017-06-10T10:51:56.962Z,1013.99
2017-06-10T10:52:56.950Z,1013.98
2017-06-10T10:53:56.940Z,1013.98
2017-06-10T10:54:56.931Z,1013.99
2017-06-10T10:55:56.920Z,1013.99
2017-06-10T10:56:56.922Z,1014
2017-06-10T10:57:56.905Z,1014.01
2017-06-10T10:58:56.893Z,1013.98
2017-06-10T10:59:56.890Z,1014.06
2017-06-10T11:00:56.874Z,1014.01
2017-06-10T11:01:56.867Z,1014.08
2017-06-10T11:02:56.858Z,1014.11
2017-06-10T11:03:56.852Z,1014.08
2017-06-10T11:04:56.844Z,1014.05
2017-06-10T11:05:56.826Z,1014.06
2017-06-10T11:06:56.819Z,1014.02
2017-06-10T11:07:56.811Z,1014.02
2017-06-10T11:08:56.802Z,1014.02
2017-06-10T11:09:56.789Z,1014.1
2017-06-10T11:10:56.788Z,1014.16
2017-06-10T11:11:56.770Z,1014.1
2017-06-10T11:12:56.764Z,1014.11
2017-06-10T11:13:56.758Z,1014.13
2017-06-10T11:14:56.741Z,1014.17
2017-06-10T11:15:56.731Z,1014.11
2017-06-10T11:16:56.730Z,1014.09
2017-06-10T11:17:56.720Z,1014.15
2017-06-10T11:18:56.711Z,1014.08
2017-06-10T11:19:56.694Z,1014.08
2017-06-10T11:20:56.772Z,1014.09
2017-06-10T11:21:56.681Z,1014.14
2017-06-10T11:22:56.749Z,1014.12
2017-06-10T11:23:56.661Z,1014.1
2017-06-10T11:24:56.750Z,1014.11
2017-06-10T11:25:56.639Z,1014.17
2017-06-10T11:26:56.737Z,1014.11
2017-06-10T11:27:56.623Z,1014.11
2017-06-10T11:28:56.619Z,1014.12
2017-06-10T11:29:56.608Z,1014.11
2017-06-10T11:30:56.604Z,1014.13
2017-06-10T11:31:56.590Z,1014.06
2017-06-10T11:32:56.584Z,1014.02
2017-06-10T11:33:56.570Z,1014.03
2017-06-10T11:34:56.572Z,1014.09
2017-06-10T11:35:56.560Z,1014.04
2017-06-10T11:36:56.550Z,1014.1
2017-06-10T11:37:56.648Z,1014.02
2017-06-10T11:38:56.526Z,1014.04
2017-06-10T11:39:56.518Z,1014
2017-06-10T11:40:56.514Z,1014.04
2017-06-10T11:41:56.501Z,1014.06
2017-06-10T11:42:56.498Z,1014.08
2017-06-10T11:43:56.489Z,1014.07
2017-06-10T11:44:56.479Z,1014
2017-06-10T11:45:56.472Z,1014.01
2017-06-10T11:46:56.455Z,1014.03
2017-06-10T11:47:56.452Z,1014.05
2017-06-10T11:48:56.440Z,1014.03
2017-06-10T11:49:56.440Z,1014.04
2017-06-10T11:50:56.424Z,1013.96
2017-06-10T11:51:56.421Z,1013.94
2017-06-10T11:52:56.406Z,1014
2017-06-10T11:53:56.395Z,1014
2017-06-10T11:54:56.390Z,1014.03
2017-06-10T11:55:56.378Z,1014.05
2017-06-10T11:56:56.369Z,1014
2017-06-10T11:57:56.360Z,1013.96
2017-06-10T11:58:56.361Z,1013.98
2017-06-10T11:59:56.349Z,1013.94
2017-06-10T12:00:56.339Z,1014.01
2017-06-10T12:01:56.329Z,1013.96
2017-06-10T12:02:56.319Z,1013.92
2017-06-10T12:03:56.312Z,1013.92
2017-06-10T12:04:56.301Z,1013.92
2017-06-10T12:05:56.301Z,1013.87
2017-06-10T12:06:56.291Z,1013.84
2017-06-10T12:07:56.279Z,1013.83